sensor_id;sensor_type;location;lat;lon;timestamp;pressure;altitude;pressure_sealevel;temperature;humidity
78855;BME280;68206;59.956;30.234;2023-09-19T00:00:44;101657.88;;;9.75;71.50
78855;BME280;68206;59.956;30.234;2023-09-19T00:03:14;101664.13;;;9.74;71.90
78855;BME280;68206;59.956;30.234;2023-09-19T00:05:43;101663.25;;;9.72;71.43
78855;BME280;68206;59.956;30.234;2023-09-19T00:08:13;101654.44;;;9.70;71.04
78855;BME280;68206;59.956;30.234;2023-09-19T00:10:43;101651.81;;;9.67;71.30
78855;BME280;68206;59.956;30.234;2023-09-19T00:13:12;101651.84;;;9.65;71.96
78855;BME280;68206;59.956;30.234;2023-09-19T00:15:44;101648.31;;;9.65;71.67
78855;BME280;68206;59.956;30.234;2023-09-19T00:18:17;101646.56;;;9.62;71.99
78855;BME280;68206;59.956;30.234;2023-09-19T00:20:46;101651.91;;;9.61;71.19
78855;BME280;68206;59.956;30.234;2023-09-19T00:23:17;101649.25;;;9.59;71.59
78855;BME280;68206;59.956;30.234;2023-09-19T00:25:48;101643.09;;;9.56;72.12
78855;BME280;68206;59.956;30.234;2023-09-19T00:28:17;101634.31;;;9.55;71.78
78855;BME280;68206;59.956;30.234;2023-09-19T00:30:47;101642.25;;;9.54;71.58
78855;BME280;68206;59.956;30.234;2023-09-19T00:33:18;101640.50;;;9.51;72.11
78855;BME280;68206;59.956;30.234;2023-09-19T00:35:47;101634.31;;;9.51;72.13
78855;BME280;68206;59.956;30.234;2023-09-19T00:38:16;101634.31;;;9.51;71.54
78855;BME280;68206;59.956;30.234;2023-09-19T00:40:49;101632.63;;;9.47;71.75
78855;BME280;68206;59.956;30.234;2023-09-19T00:43:18;101637.03;;;9.45;71.93
78855;BME280;68206;59.956;30.234;2023-09-19T00:45:48;101633.56;;;9.41;72.00
78855;BME280;68206;59.956;30.234;2023-09-19T00:48:19;101634.47;;;9.37;72.19
78855;BME280;68206;59.956;30.234;2023-09-19T00:50:49;101645.94;;;9.38;71.92
78855;BME280;68206;59.956;30.234;2023-09-19T00:53:19;101634.50;;;9.36;72.63
78855;BME280;68206;59.956;30.234;2023-09-19T00:55:51;101627.44;;;9.35;72.29
78855;BME280;68206;59.956;30.234;2023-09-19T00:58:20;101624.81;;;9.31;72.19
78855;BME280;68206;59.956;30.234;2023-09-19T01:00:49;101615.16;;;9.30;72.43
78855;BME280;68206;59.956;30.234;2023-09-19T01:03:17;101614.25;;;9.30;72.06
78855;BME280;68206;59.956;30.234;2023-09-19T01:05:46;101611.66;;;9.25;73.00
78855;BME280;68206;59.956;30.234;2023-09-19T01:08:14;101602.81;;;9.26;72.26
78855;BME280;68206;59.956;30.234;2023-09-19T01:10:59;101599.34;;;9.23;72.82
78855;BME280;68206;59.956;30.234;2023-09-19T01:13:37;101593.19;;;9.19;72.46
78855;BME280;68206;59.956;30.234;2023-09-19T01:16:19;101591.41;;;9.18;72.83
78855;BME280;68206;59.956;30.234;2023-09-19T01:18:55;101576.47;;;9.16;72.82
78855;BME280;68206;59.956;30.234;2023-09-19T01:21:36;101580.88;;;9.14;72.36
78855;BME280;68206;59.956;30.234;2023-09-19T01:24:30;101577.41;;;9.12;72.65
78855;BME280;68206;59.956;30.234;2023-09-19T01:27:23;101566.81;;;9.09;72.20
78855;BME280;68206;59.956;30.234;2023-09-19T01:30:07;101556.25;;;9.07;72.59
78855;BME280;68206;59.956;30.234;2023-09-19T01:32:38;101550.13;;;9.05;72.19
78855;BME280;68206;59.956;30.234;2023-09-19T01:35:08;101556.31;;;9.03;72.43
78855;BME280;68206;59.956;30.234;2023-09-19T01:37:40;101550.19;;;8.99;73.00
78855;BME280;68206;59.956;30.234;2023-09-19T01:40:13;101543.13;;;8.98;73.31
78855;BME280;68206;59.956;30.234;2023-09-19T01:42:48;101552.81;;;8.99;72.96
78855;BME280;68206;59.956;30.234;2023-09-19T01:45:37;101532.53;;;8.98;72.74
78855;BME280;68206;59.956;30.234;2023-09-19T01:48:19;101526.41;;;8.95;72.70
78855;BME280;68206;59.956;30.234;2023-09-19T01:50:55;101526.44;;;8.92;72.65
78855;BME280;68206;59.956;30.234;2023-09-19T01:53:27;101518.50;;;8.90;72.33
78855;BME280;68206;59.956;30.234;2023-09-19T01:55:57;101515.84;;;8.92;72.60
78855;BME280;68206;59.956;30.234;2023-09-19T01:58:34;101510.56;;;8.92;72.92
78855;BME280;68206;59.956;30.234;2023-09-19T02:01:04;101503.53;;;8.89;72.80
78855;BME280;68206;59.956;30.234;2023-09-19T02:03:34;101502.63;;;8.90;73.01
78855;BME280;68206;59.956;30.234;2023-09-19T02:06:04;101500.81;;;8.98;72.65
78855;BME280;68206;59.956;30.234;2023-09-19T02:08:39;101496.34;;;9.02;72.86
78855;BME280;68206;59.956;30.234;2023-09-19T02:11:07;101492.78;;;9.04;72.37
78855;BME280;68206;59.956;30.234;2023-09-19T02:13:35;101485.75;;;9.00;72.54
78855;BME280;68206;59.956;30.234;2023-09-19T02:16:06;101484.03;;;8.99;72.74
78855;BME280;68206;59.956;30.234;2023-09-19T02:18:36;101469.94;;;8.99;72.39
78855;BME280;68206;59.956;30.234;2023-09-19T02:21:04;101464.63;;;8.99;72.67
78855;BME280;68206;59.956;30.234;2023-09-19T02:23:33;101448.75;;;8.99;72.55
78855;BME280;68206;59.956;30.234;2023-09-19T02:26:02;101452.31;;;8.96;72.84
78855;BME280;68206;59.956;30.234;2023-09-19T02:28:30;101432.91;;;8.96;72.61
78855;BME280;68206;59.956;30.234;2023-09-19T02:30:59;101433.81;;;8.95;72.73
78855;BME280;68206;59.956;30.234;2023-09-19T02:33:29;101434.69;;;8.95;72.49
78855;BME280;68206;59.956;30.234;2023-09-19T02:36:00;101427.63;;;8.94;72.96
78855;BME280;68206;59.956;30.234;2023-09-19T02:38:31;101420.56;;;8.98;72.69
78855;BME280;68206;59.956;30.234;2023-09-19T02:40:59;101403.78;;;8.97;72.78
78855;BME280;68206;59.956;30.234;2023-09-19T02:43:28;101407.25;;;9.02;72.58
78855;BME280;68206;59.956;30.234;2023-09-19T02:45:56;101407.25;;;9.04;72.29
78855;BME280;68206;59.956;30.234;2023-09-19T02:48:25;101400.13;;;9.07;72.59
78855;BME280;68206;59.956;30.234;2023-09-19T02:50:55;101394.84;;;9.06;72.17
78855;BME280;68206;59.956;30.234;2023-09-19T02:53:23;101389.56;;;9.07;72.16
78855;BME280;68206;59.956;30.234;2023-09-19T02:55:52;101391.38;;;9.02;72.29
78855;BME280;68206;59.956;30.234;2023-09-19T02:58:21;101380.81;;;9.01;72.57
78855;BME280;68206;59.956;30.234;2023-09-19T03:00:52;101379.97;;;8.99;72.67
78855;BME280;68206;59.956;30.234;2023-09-19T03:03:20;101367.63;;;8.98;73.19
78855;BME280;68206;59.956;30.234;2023-09-19T03:05:50;101365.81;;;9.00;72.88
78855;BME280;68206;59.956;30.234;2023-09-19T03:08:24;101366.69;;;9.03;72.88
78855;BME280;68206;59.956;30.234;2023-09-19T03:11:13;101373.69;;;9.07;72.47
78855;BME280;68206;59.956;30.234;2023-09-19T03:14:42;101371.81;;;9.17;72.49
78855;BME280;68206;59.956;30.234;2023-09-19T03:17:32;101359.38;;;9.23;72.26
78855;BME280;68206;59.956;30.234;2023-09-19T03:20:01;101357.53;;;9.27;72.27
78855;BME280;68206;59.956;30.234;2023-09-19T03:22:31;101346.84;;;9.35;71.85
78855;BME280;68206;59.956;30.234;2023-09-19T03:25:01;101346.78;;;9.39;71.79
78855;BME280;68206;59.956;30.234;2023-09-19T03:27:30;101344.91;;;9.46;71.65
78855;BME280;68206;59.956;30.234;2023-09-19T03:29:59;101346.56;;;9.53;71.10
78855;BME280;68206;59.956;30.234;2023-09-19T03:32:29;101334.19;;;9.55;70.86
78855;BME280;68206;59.956;30.234;2023-09-19T03:34:58;101334.22;;;9.52;70.64
78855;BME280;68206;59.956;30.234;2023-09-19T03:37:26;101322.75;;;9.51;71.31
78855;BME280;68206;59.956;30.234;2023-09-19T03:39:55;101320.97;;;9.52;70.91
78855;BME280;68206;59.956;30.234;2023-09-19T03:42:25;101314.81;;;9.51;70.95
78855;BME280;68206;59.956;30.234;2023-09-19T03:44:53;101310.34;;;9.55;71.17
78855;BME280;68206;59.956;30.234;2023-09-19T03:47:23;101305.94;;;9.55;70.96
78855;BME280;68206;59.956;30.234;2023-09-19T03:49:53;101289.13;;;9.56;70.62
78855;BME280;68206;59.956;30.234;2023-09-19T03:52:21;101283.81;;;9.56;70.70
78855;BME280;68206;59.956;30.234;2023-09-19T03:54:49;101278.53;;;9.56;71.32
78855;BME280;68206;59.956;30.234;2023-09-19T03:57:17;101259.19;;;9.53;70.73
78855;BME280;68206;59.956;30.234;2023-09-19T03:59:49;101274.97;;;9.59;70.75
78855;BME280;68206;59.956;30.234;2023-09-19T04:02:20;101252.91;;;9.60;71.14
78855;BME280;68206;59.956;30.234;2023-09-19T04:04:51;101253.72;;;9.62;70.93
78855;BME280;68206;59.956;30.234;2023-09-19T04:07:20;101236.06;;;9.62;70.79
78855;BME280;68206;59.956;30.234;2023-09-19T04:09:49;101239.53;;;9.66;70.62
78855;BME280;68206;59.956;30.234;2023-09-19T04:12:20;101239.59;;;9.63;70.92
78855;BME280;68206;59.956;30.234;2023-09-19T04:14:50;101228.06;;;9.65;70.23
78855;BME280;68206;59.956;30.234;2023-09-19T04:17:19;101231.53;;;9.69;70.04
78855;BME280;68206;59.956;30.234;2023-09-19T04:19:48;101227.09;;;9.69;70.48
78855;BME280;68206;59.956;30.234;2023-09-19T04:22:16;101218.22;;;9.74;70.07
78855;BME280;68206;59.956;30.234;2023-09-19T04:24:45;101208.50;;;9.74;69.78
78855;BME280;68206;59.956;30.234;2023-09-19T04:27:13;101200.69;;;9.66;70.44
78855;BME280;68206;59.956;30.234;2023-09-19T04:29:42;101195.41;;;9.65;70.05
78855;BME280;68206;59.956;30.234;2023-09-19T04:32:12;101197.22;;;9.63;70.47
78855;BME280;68206;59.956;30.234;2023-09-19T04:34:40;101187.47;;;9.66;69.66
78855;BME280;68206;59.956;30.234;2023-09-19T04:37:09;101175.09;;;9.67;70.15
78855;BME280;68206;59.956;30.234;2023-09-19T04:39:37;101178.53;;;9.70;70.16
78855;BME280;68206;59.956;30.234;2023-09-19T04:42:08;101171.31;;;9.80;70.11
78855;BME280;68206;59.956;30.234;2023-09-19T04:44:38;101177.50;;;9.79;69.62
78855;BME280;68206;59.956;30.234;2023-09-19T04:47:07;101167.72;;;9.81;69.60
78855;BME280;68206;59.956;30.234;2023-09-19T04:49:36;101176.44;;;9.88;69.55
78855;BME280;68206;59.956;30.234;2023-09-19T04:52:07;101167.97;;;10.17;68.39
78855;BME280;68206;59.956;30.234;2023-09-19T04:54:35;101166.78;;;10.70;66.95
78855;BME280;68206;59.956;30.234;2023-09-19T04:57:03;101168.63;;;10.66;66.95
78855;BME280;68206;59.956;30.234;2023-09-19T04:59:32;101165.16;;;10.63;66.76
78855;BME280;68206;59.956;30.234;2023-09-19T05:02:01;101155.50;;;10.60;67.33
78855;BME280;68206;59.956;30.234;2023-09-19T05:04:29;101155.56;;;10.57;66.05
78855;BME280;68206;59.956;30.234;2023-09-19T05:07:00;101153.72;;;10.61;66.42
78855;BME280;68206;59.956;30.234;2023-09-19T05:09:30;101144.00;;;10.61;65.71
78855;BME280;68206;59.956;30.234;2023-09-19T05:12:00;101138.97;;;10.49;65.96
78855;BME280;68206;59.956;30.234;2023-09-19T05:14:29;101139.63;;;10.59;66.07
78855;BME280;68206;59.956;30.234;2023-09-19T05:16:57;101130.69;;;10.63;65.61
78855;BME280;68206;59.956;30.234;2023-09-19T05:19:25;101112.63;;;10.78;65.59
78855;BME280;68206;59.956;30.234;2023-09-19T05:21:54;101125.69;;;11.23;64.28
78855;BME280;68206;59.956;30.234;2023-09-19T05:24:23;101118.59;;;11.88;62.87
78855;BME280;68206;59.956;30.234;2023-09-19T05:26:53;101104.22;;;12.25;60.54
78855;BME280;68206;59.956;30.234;2023-09-19T05:29:22;101098.09;;;12.50;60.02
78855;BME280;68206;59.956;30.234;2023-09-19T05:31:50;101095.56;;;12.47;59.24
78855;BME280;68206;59.956;30.234;2023-09-19T05:34:20;101098.22;;;12.18;59.58
78855;BME280;68206;59.956;30.234;2023-09-19T05:36:48;101105.09;;;12.81;59.15
78855;BME280;68206;59.956;30.234;2023-09-19T05:39:17;101081.47;;;13.49;56.22
78855;BME280;68206;59.956;30.234;2023-09-19T05:41:46;101082.63;;;14.13;55.07
78855;BME280;68206;59.956;30.234;2023-09-19T05:44:15;101070.03;;;15.46;51.33
78855;BME280;68206;59.956;30.234;2023-09-19T05:46:43;101066.03;;;16.51;49.15
78855;BME280;68206;59.956;30.234;2023-09-19T05:49:13;101056.25;;;17.22;47.10
78855;BME280;68206;59.956;30.234;2023-09-19T05:51:42;101059.41;;;17.81;45.16
78855;BME280;68206;59.956;30.234;2023-09-19T05:54:10;101053.75;;;18.18;44.41
78855;BME280;68206;59.956;30.234;2023-09-19T05:56:39;101039.38;;;18.82;42.11
78855;BME280;68206;59.956;30.234;2023-09-19T05:59:10;101042.53;;;19.34;41.83
78855;BME280;68206;59.956;30.234;2023-09-19T06:01:38;101040.41;;;19.97;40.40
78855;BME280;68206;59.956;30.234;2023-09-19T06:04:07;101043.63;;;20.72;38.94
78855;BME280;68206;59.956;30.234;2023-09-19T06:06:35;101045.72;;;21.20;37.42
78855;BME280;68206;59.956;30.234;2023-09-19T06:09:06;101043.25;;;21.17;36.99
78855;BME280;68206;59.956;30.234;2023-09-19T06:11:35;101025.47;;;21.65;36.86
78855;BME280;68206;59.956;30.234;2023-09-19T06:14:04;101036.81;;;21.96;35.86
78855;BME280;68206;59.956;30.234;2023-09-19T06:16:34;101029.84;;;22.30;34.79
78855;BME280;68206;59.956;30.234;2023-09-19T06:19:02;101028.19;;;21.53;35.64
78855;BME280;68206;59.956;30.234;2023-09-19T06:21:31;101023.13;;;21.48;36.35
78855;BME280;68206;59.956;30.234;2023-09-19T06:23:59;101017.81;;;21.59;36.50
78855;BME280;68206;59.956;30.234;2023-09-19T06:26:27;101014.59;;;21.67;36.27
78855;BME280;68206;59.956;30.234;2023-09-19T06:28:56;101017.31;;;22.29;35.17
78855;BME280;68206;59.956;30.234;2023-09-19T06:31:24;101015.03;;;22.59;35.08
78855;BME280;68206;59.956;30.234;2023-09-19T06:33:54;101000.09;;;22.66;34.75
78855;BME280;68206;59.956;30.234;2023-09-19T06:36:23;100989.88;;;23.28;34.04
78855;BME280;68206;59.956;30.234;2023-09-19T06:38:51;100999.06;;;23.61;33.27
78855;BME280;68206;59.956;30.234;2023-09-19T06:41:20;100989.44;;;23.68;33.55
78855;BME280;68206;59.956;30.234;2023-09-19T06:43:52;101000.38;;;23.55;33.32
78855;BME280;68206;59.956;30.234;2023-09-19T06:46:21;100977.25;;;24.07;33.21
78855;BME280;68206;59.956;30.234;2023-09-19T06:48:49;100977.59;;;24.25;32.54
78855;BME280;68206;59.956;30.234;2023-09-19T06:51:20;100970.44;;;24.24;32.97
78855;BME280;68206;59.956;30.234;2023-09-19T06:53:49;100974.06;;;23.68;33.42
78855;BME280;68206;59.956;30.234;2023-09-19T06:56:18;100958.75;;;23.23;34.43
78855;BME280;68206;59.956;30.234;2023-09-19T06:58:46;100962.63;;;23.08;34.80
78855;BME280;68206;59.956;30.234;2023-09-19T07:01:15;100958.31;;;23.51;34.29
78855;BME280;68206;59.956;30.234;2023-09-19T07:03:43;100948.41;;;24.06;33.46
78855;BME280;68206;59.956;30.234;2023-09-19T07:06:12;100948.44;;;24.60;32.55
78855;BME280;68206;59.956;30.234;2023-09-19T07:08:42;100948.44;;;24.49;32.59
78855;BME280;68206;59.956;30.234;2023-09-19T07:11:12;100953.78;;;24.39;32.92
78855;BME280;68206;59.956;30.234;2023-09-19T07:13:41;100938.09;;;24.11;33.79
78855;BME280;68206;59.956;30.234;2023-09-19T07:16:09;100950.13;;;23.29;34.60
78855;BME280;68206;59.956;30.234;2023-09-19T07:18:46;100934.88;;;23.28;34.90
78855;BME280;68206;59.956;30.234;2023-09-19T07:21:14;100938.09;;;23.89;34.20
78855;BME280;68206;59.956;30.234;2023-09-19T07:23:44;100931.13;;;24.93;32.78
78855;BME280;68206;59.956;30.234;2023-09-19T07:26:12;100954.44;;;25.67;31.38
78855;BME280;68206;59.956;30.234;2023-09-19T07:28:40;100927.84;;;26.01;30.91
78855;BME280;68206;59.956;30.234;2023-09-19T07:31:09;100927.94;;;24.24;33.17
78855;BME280;68206;59.956;30.234;2023-09-19T07:33:37;100928.38;;;23.42;34.91
78855;BME280;68206;59.956;30.234;2023-09-19T07:36:10;100922.88;;;22.38;36.63
78855;BME280;68206;59.956;30.234;2023-09-19T07:38:40;100918.50;;;21.52;38.98
78855;BME280;68206;59.956;30.234;2023-09-19T07:41:10;100904.13;;;21.64;39.12
78855;BME280;68206;59.956;30.234;2023-09-19T07:43:38;100913.66;;;21.31;39.71
78855;BME280;68206;59.956;30.234;2023-09-19T07:46:08;100909.06;;;20.81;40.93
78855;BME280;68206;59.956;30.234;2023-09-19T07:48:37;100897.03;;;19.94;43.12
78855;BME280;68206;59.956;30.234;2023-09-19T07:51:08;100906.88;;;19.38;44.38
78855;BME280;68206;59.956;30.234;2023-09-19T07:53:36;100891.91;;;18.62;46.61
78855;BME280;68206;59.956;30.234;2023-09-19T07:56:06;100893.34;;;18.37;47.45
78855;BME280;68206;59.956;30.234;2023-09-19T07:58:38;100892.00;;;18.14;48.21
78855;BME280;68206;59.956;30.234;2023-09-19T08:01:08;100885.19;;;17.93;48.94
78855;BME280;68206;59.956;30.234;2023-09-19T08:03:37;100886.75;;;17.82;49.70
78855;BME280;68206;59.956;30.234;2023-09-19T08:06:08;100885.03;;;17.65;50.31
78855;BME280;68206;59.956;30.234;2023-09-19T08:08:37;100869.34;;;17.42;51.42
78855;BME280;68206;59.956;30.234;2023-09-19T08:11:06;100874.16;;;17.35;52.08
78855;BME280;68206;59.956;30.234;2023-09-19T08:13:40;100866.09;;;17.19;52.49
78855;BME280;68206;59.956;30.234;2023-09-19T08:16:11;100868.69;;;17.21;53.10
78855;BME280;68206;59.956;30.234;2023-09-19T08:18:39;100859.09;;;17.17;52.90
78855;BME280;68206;59.956;30.234;2023-09-19T08:21:08;100860.97;;;17.15;53.43
78855;BME280;68206;59.956;30.234;2023-09-19T08:23:38;100867.34;;;17.12;53.80
78855;BME280;68206;59.956;30.234;2023-09-19T08:26:06;100867.81;;;17.05;54.13
78855;BME280;68206;59.956;30.234;2023-09-19T08:28:35;100874.19;;;17.02;54.24
78855;BME280;68206;59.956;30.234;2023-09-19T08:31:06;100867.47;;;16.93;55.43
78855;BME280;68206;59.956;30.234;2023-09-19T08:33:37;100861.91;;;16.98;55.21
78855;BME280;68206;59.956;30.234;2023-09-19T08:36:06;100855.34;;;17.04;55.33
78855;BME280;68206;59.956;30.234;2023-09-19T08:38:36;100857.78;;;17.08;55.45
78855;BME280;68206;59.956;30.234;2023-09-19T08:41:06;100847.59;;;17.15;55.62
78855;BME280;68206;59.956;30.234;2023-09-19T08:43:35;100839.06;;;17.24;55.63
78855;BME280;68206;59.956;30.234;2023-09-19T08:46:10;100826.94;;;17.32;55.76
78855;BME280;68206;59.956;30.234;2023-09-19T08:48:45;100824.09;;;17.51;55.43
78855;BME280;68206;59.956;30.234;2023-09-19T08:51:18;100823.41;;;17.63;55.54
78855;BME280;68206;59.956;30.234;2023-09-19T08:53:51;100818.66;;;17.84;55.29
78855;BME280;68206;59.956;30.234;2023-09-19T08:56:22;100805.09;;;18.01;54.89
78855;BME280;68206;59.956;30.234;2023-09-19T08:58:56;100790.31;;;18.24;54.19
78855;BME280;68206;59.956;30.234;2023-09-19T09:01:28;100803.97;;;18.35;54.39
78855;BME280;68206;59.956;30.234;2023-09-19T09:03:57;100780.50;;;18.53;54.19
78855;BME280;68206;59.956;30.234;2023-09-19T09:06:26;100778.63;;;18.83;53.60
78855;BME280;68206;59.956;30.234;2023-09-19T09:08:55;100766.53;;;19.05;52.79
78855;BME280;68206;59.956;30.234;2023-09-19T09:11:24;100761.41;;;19.14;52.95
78855;BME280;68206;59.956;30.234;2023-09-19T09:13:55;100761.84;;;19.35;52.35
78855;BME280;68206;59.956;30.234;2023-09-19T09:16:24;100759.34;;;19.46;52.25
78855;BME280;68206;59.956;30.234;2023-09-19T09:18:54;100753.38;;;19.41;52.91
78855;BME280;68206;59.956;30.234;2023-09-19T09:21:25;100734.59;;;19.27;53.49
78855;BME280;68206;59.956;30.234;2023-09-19T09:23:53;100722.13;;;19.12;54.17
78855;BME280;68206;59.956;30.234;2023-09-19T09:26:40;100726.09;;;19.06;54.58
78855;BME280;68206;59.956;30.234;2023-09-19T09:29:09;100739.56;;;18.92;54.80
78855;BME280;68206;59.956;30.234;2023-09-19T09:31:38;100727.31;;;18.74;56.05
78855;BME280;68206;59.956;30.234;2023-09-19T09:34:10;100725.28;;;18.77;55.55
78855;BME280;68206;59.956;30.234;2023-09-19T09:36:41;100716.16;;;18.80;55.67
78855;BME280;68206;59.956;30.234;2023-09-19T09:39:10;100701.47;;;18.85;55.43
78855;BME280;68206;59.956;30.234;2023-09-19T09:41:51;100703.47;;;18.68;56.79
78855;BME280;68206;59.956;30.234;2023-09-19T09:44:19;100703.13;;;18.74;56.60
78855;BME280;68206;59.956;30.234;2023-09-19T09:46:48;100687.66;;;18.77;56.64
78855;BME280;68206;59.956;30.234;2023-09-19T09:49:47;100693.88;;;18.92;56.97
78855;BME280;68206;59.956;30.234;2023-09-19T09:52:21;100690.88;;;18.97;56.80
78855;BME280;68206;59.956;30.234;2023-09-19T09:54:58;100696.25;;;19.11;56.65
78855;BME280;68206;59.956;30.234;2023-09-19T09:57:28;100696.88;;;19.14;56.49
78855;BME280;68206;59.956;30.234;2023-09-19T09:59:58;100684.56;;;19.24;56.82
78855;BME280;68206;59.956;30.234;2023-09-19T10:02:43;100679.75;;;19.29;56.65
78855;BME280;68206;59.956;30.234;2023-09-19T10:05:16;100680.50;;;19.31;56.97
78855;BME280;68206;59.956;30.234;2023-09-19T10:07:56;100688.06;;;19.39;56.93
78855;BME280;68206;59.956;30.234;2023-09-19T10:10:32;100678.34;;;19.37;57.73
78855;BME280;68206;59.956;30.234;2023-09-19T10:13:12;100675.66;;;19.51;57.69
78855;BME280;68206;59.956;30.234;2023-09-19T10:15:43;100663.50;;;19.58;57.50
78855;BME280;68206;59.956;30.234;2023-09-19T10:18:20;100658.03;;;19.59;58.05
78855;BME280;68206;59.956;30.234;2023-09-19T10:20:50;100654.06;;;19.65;57.65
78855;BME280;68206;59.956;30.234;2023-09-19T10:23:21;100652.78;;;19.70;57.92
78855;BME280;68206;59.956;30.234;2023-09-19T10:25:51;100651.31;;;19.79;57.49
78855;BME280;68206;59.956;30.234;2023-09-19T10:28:21;100643.00;;;19.82;57.63
78855;BME280;68206;59.956;30.234;2023-09-19T10:30:51;100644.53;;;19.86;57.48
78855;BME280;68206;59.956;30.234;2023-09-19T10:33:21;100640.97;;;19.86;57.70
78855;BME280;68206;59.956;30.234;2023-09-19T10:35:58;100632.34;;;19.93;57.66
78855;BME280;68206;59.956;30.234;2023-09-19T10:38:28;100619.31;;;20.00;57.79
78855;BME280;68206;59.956;30.234;2023-09-19T10:40:57;100615.56;;;20.02;57.94
78855;BME280;68206;59.956;30.234;2023-09-19T10:43:30;100609.31;;;20.02;58.23
78855;BME280;68206;59.956;30.234;2023-09-19T10:46:06;100599.94;;;20.07;58.16
78855;BME280;68206;59.956;30.234;2023-09-19T10:48:38;100602.53;;;20.09;58.24
78855;BME280;68206;59.956;30.234;2023-09-19T10:51:12;100600.25;;;20.16;58.31
78855;BME280;68206;59.956;30.234;2023-09-19T10:53:44;100587.66;;;20.16;58.37
78855;BME280;68206;59.956;30.234;2023-09-19T10:56:19;100591.41;;;20.13;58.76
78855;BME280;68206;59.956;30.234;2023-09-19T10:58:49;100592.63;;;20.22;58.63
78855;BME280;68206;59.956;30.234;2023-09-19T11:01:19;100584.00;;;20.17;58.45
78855;BME280;68206;59.956;30.234;2023-09-19T11:04:20;100579.06;;;20.11;59.19
78855;BME280;68206;59.956;30.234;2023-09-19T11:07:01;100572.66;;;20.25;58.75
78855;BME280;68206;59.956;30.234;2023-09-19T11:09:47;100571.19;;;20.33;58.91
78855;BME280;68206;59.956;30.234;2023-09-19T11:12:48;100575.47;;;20.48;58.78
78855;BME280;68206;59.956;30.234;2023-09-19T11:21:54;100567.13;;;21.36;56.54
78855;BME280;68206;59.956;30.234;2023-09-19T11:24:31;100561.00;;;21.45;56.28
78855;BME280;68206;59.956;30.234;2023-09-19T11:27:10;100546.06;;;21.52;56.23
78855;BME280;68206;59.956;30.234;2023-09-19T11:29:41;100543.66;;;21.60;56.04
78855;BME280;68206;59.956;30.234;2023-09-19T11:32:09;100564.59;;;21.56;55.94
78855;BME280;68206;59.956;30.234;2023-09-19T11:34:44;100539.69;;;21.42;56.22
78855;BME280;68206;59.956;30.234;2023-09-19T11:40:37;100536.22;;;21.40;56.25
78855;BME280;68206;59.956;30.234;2023-09-19T11:43:32;100522.84;;;21.38;56.21
78855;BME280;68206;59.956;30.234;2023-09-19T11:46:06;100519.75;;;21.31;56.32
78855;BME280;68206;59.956;30.234;2023-09-19T11:48:35;100532.38;;;21.31;56.83
78855;BME280;68206;59.956;30.234;2023-09-19T11:51:13;100542.69;;;21.26;56.51
78855;BME280;68206;59.956;30.234;2023-09-19T11:53:47;100542.06;;;21.22;56.79
78855;BME280;68206;59.956;30.234;2023-09-19T11:56:19;100536.69;;;21.22;56.77
78855;BME280;68206;59.956;30.234;2023-09-19T11:58:49;100529.09;;;21.27;56.79
78855;BME280;68206;59.956;30.234;2023-09-19T12:01:23;100532.16;;;21.23;56.98
78855;BME280;68206;59.956;30.234;2023-09-19T12:03:55;100527.75;;;21.33;56.79
78855;BME280;68206;59.956;30.234;2023-09-19T12:06:26;100538.31;;;21.36;56.83
78855;BME280;68206;59.956;30.234;2023-09-19T12:08:56;100520.00;;;21.28;56.49
78855;BME280;68206;59.956;30.234;2023-09-19T12:11:29;100535.69;;;21.23;56.36
78855;BME280;68206;59.956;30.234;2023-09-19T12:14:02;100521.22;;;21.24;56.29
78855;BME280;68206;59.956;30.234;2023-09-19T12:16:31;100516.69;;;21.25;56.38
78855;BME280;68206;59.956;30.234;2023-09-19T12:19:19;100504.22;;;21.35;56.11
78855;BME280;68206;59.956;30.234;2023-09-19T12:22:00;100502.88;;;21.41;56.47
78855;BME280;68206;59.956;30.234;2023-09-19T12:24:32;100508.38;;;21.39;56.21
78855;BME280;68206;59.956;30.234;2023-09-19T12:27:06;100495.00;;;21.38;56.20
78855;BME280;68206;59.956;30.234;2023-09-19T12:29:44;100499.44;;;21.39;56.04
78855;BME280;68206;59.956;30.234;2023-09-19T12:32:13;100491.81;;;21.32;56.27
78855;BME280;68206;59.956;30.234;2023-09-19T12:34:50;100481.88;;;21.33;56.36
78855;BME280;68206;59.956;30.234;2023-09-19T12:37:20;100482.50;;;21.37;56.28
78855;BME280;68206;59.956;30.234;2023-09-19T12:39:51;100480.53;;;21.39;56.17
78855;BME280;68206;59.956;30.234;2023-09-19T12:42:24;100483.25;;;21.39;56.19
78855;BME280;68206;59.956;30.234;2023-09-19T12:44:55;100494.31;;;21.47;56.13
78855;BME280;68206;59.956;30.234;2023-09-19T12:47:24;100480.06;;;21.45;56.26
78855;BME280;68206;59.956;30.234;2023-09-19T12:50:06;100458.84;;;21.51;55.92
78855;BME280;68206;59.956;30.234;2023-09-19T12:52:41;100471.84;;;21.46;55.95
78855;BME280;68206;59.956;30.234;2023-09-19T12:55:22;100460.09;;;21.47;56.08
78855;BME280;68206;59.956;30.234;2023-09-19T12:58:03;100446.22;;;21.41;55.90
78855;BME280;68206;59.956;30.234;2023-09-19T13:00:37;100452.47;;;21.41;56.02
78855;BME280;68206;59.956;30.234;2023-09-19T13:03:11;100438.84;;;21.43;55.97
78855;BME280;68206;59.956;30.234;2023-09-19T13:05:50;100435.41;;;21.29;56.50
78855;BME280;68206;59.956;30.234;2023-09-19T13:08:20;100438.59;;;21.23;56.73
78855;BME280;68206;59.956;30.234;2023-09-19T13:11:06;100431.19;;;21.14;57.26
78855;BME280;68206;59.956;30.234;2023-09-19T13:13:40;100430.31;;;21.14;57.39
78855;BME280;68206;59.956;30.234;2023-09-19T13:16:15;100428.34;;;21.05;57.77